Time;durP1;ratioP1;P1;durP2;ratioP2;P2;SDS_P1;SDS_P2;PMS_P1;PMS_P2;Temp;Humidity;BMP_temperature;BMP_pressure;BME280_temperature;BME280_humidity;BME280_pressure;Samples;Min_cycle;Max_cycle;Signal;HPM_P1;HPM_P2
2023/06/21 00:00:28;;;;;;;11.00;9.90;;;;;;;17.81;100.00;101044.09;5203204;28;20030;-65
2023/06/21 00:03:00;;;;;;;11.30;10.10;;;;;;;17.80;100.00;101046.78;5203528;28;20030;-65
2023/06/21 00:05:32;;;;;;;11.70;10.50;;;;;;;17.78;100.00;101046.00;5203375;28;20026;-65
2023/06/21 00:08:04;;;;;;;11.18;10.13;;;;;;;17.79;100.00;101045.06;5202798;28;20030;-65
2023/06/21 00:10:36;;;;;;;;;;;;;;;17.79;100.00;101045.06;5203491;28;20034;-65
2023/06/21 00:13:08;;;;;;;11.53;10.43;;;;;;;17.79;100.00;101053.84;5203029;28;19949;-65
2023/06/21 00:15:39;;;;;;;11.05;9.95;;;;;;;17.76;100.00;101061.88;5203499;28;20277;-66
2023/06/21 00:18:11;;;;;;;11.47;10.37;;;;;;;17.73;100.00;101059.34;5201869;28;20036;-65
2023/06/21 00:20:42;;;;;;;12.80;10.83;;;;;;;17.70;100.00;101062.09;5202997;28;20038;-65
2023/06/21 00:23:14;;;;;;;12.10;10.43;;;;;;;17.65;100.00;101061.41;5202911;28;20040;-65
2023/06/21 00:25:45;;;;;;;11.70;10.60;;;;;;;17.64;100.00;101057.91;5203131;28;20113;-65
2023/06/21 00:28:17;;;;;;;10.67;9.67;;;;;;;17.66;100.00;101064.00;5202927;28;20121;-64
2023/06/21 00:30:48;;;;;;;13.37;11.67;;;;;;;17.60;100.00;101052.84;5202772;28;20037;-65
2023/06/21 00:33:20;;;;;;;11.47;10.37;;;;;;;17.62;100.00;101051.00;5202995;28;20037;-65
2023/06/21 00:35:51;;;;;;;16.43;12.87;;;;;;;17.60;100.00;101053.69;5202970;28;20097;-64
2023/06/21 00:38:23;;;;;;;14.13;11.52;;;;;;;17.57;100.00;101056.44;5202257;28;20049;-66
2023/06/21 00:40:54;;;;;;;12.23;11.03;;;;;;;17.57;100.00;101068.75;5203139;28;20087;-66
2023/06/21 00:43:25;;;;;;;13.70;12.00;;;;;;;17.58;100.00;101062.56;5202539;28;20026;-65
2023/06/21 00:45:57;;;;;;;14.77;12.53;;;;;;;17.56;100.00;101067.03;5202690;28;20045;-66
2023/06/21 00:48:29;;;;;;;13.83;12.40;;;;;;;17.56;100.00;101065.25;5202859;28;20033;-64
2023/06/21 00:51:00;;;;;;;12.93;11.67;;;;;;;17.55;100.00;101060.91;5202783;28;20080;-64
2023/06/21 00:53:32;;;;;;;12.33;11.13;;;;;;;17.53;100.00;101067.16;5202929;28;20037;-65
2023/06/21 00:56:03;;;;;;;14.27;12.87;;;;;;;17.52;100.00;101057.50;5202597;28;20026;-65
2023/06/21 00:58:35;;;;;;;13.00;11.70;;;;;;;17.53;100.00;101067.16;5217628;28;20080;-65
2023/06/21 01:01:06;;;;;;;13.63;12.20;;;;;;;17.48;100.00;101075.22;5202466;28;20380;-65
2023/06/21 01:03:38;;;;;;;13.63;12.27;;;;;;;17.48;100.00;101067.31;5202463;28;20053;-66
2023/06/21 01:06:27;;;;;;;12.90;11.60;;;;;;;17.50;100.00;101076.91;5201903;28;20124;-65
2023/06/21 01:09:40;;;;;;;13.27;11.98;;;;;;;17.46;100.00;101077.06;5201274;28;20038;-65
2023/06/21 01:12:29;;;;;;;14.30;12.90;;;;;;;17.45;100.00;101091.16;5193827;28;20081;-64
2023/06/21 01:15:07;;;;;;;17.20;12.77;;;;;;;17.44;100.00;101081.53;5201633;28;20038;-64
2023/06/21 01:17:40;;;;;;;15.35;12.15;;;;;;;17.44;100.00;101079.75;5201915;28;20034;-65
2023/06/21 01:20:18;;;;;;;13.68;12.43;;;;;;;17.41;100.00;101074.59;5201802;28;20533;-65
2023/06/21 01:23:23;;;;;;;13.75;12.45;;;;;;;17.39;100.00;101078.19;5200405;28;20034;-65
2023/06/21 01:26:03;;;;;;;14.82;13.38;;;;;;;17.39;100.00;101086.09;5201667;28;20085;-65
2023/06/21 01:29:12;;;;;;;15.15;12.65;;;;;;;17.38;100.00;101089.66;5201399;28;20037;-65
2023/06/21 01:31:45;;;;;;;15.02;13.60;;;;;;;17.40;100.00;101083.41;5197925;28;20039;-65
2023/06/21 01:34:17;;;;;;;13.18;11.93;;;;;;;17.35;100.00;101085.34;5201276;28;20030;-65
2023/06/21 01:36:49;;;;;;;13.68;12.45;;;;;;;17.36;100.00;101094.13;5201051;28;20068;-65
2023/06/21 01:39:20;;;;;;;14.57;13.20;;;;;;;17.33;100.00;101095.09;5200558;28;20038;-66
2023/06/21 01:41:52;;;;;;;13.67;12.37;;;;;;;17.37;100.00;101106.38;5200879;28;20633;-66
2023/06/21 01:44:23;;;;;;;14.10;12.90;;;;;;;17.35;100.00;101103.78;5217982;28;20030;-66
2023/06/21 01:46:57;;;;;;;13.88;12.57;;;;;;;17.35;100.00;101103.78;5217899;28;20042;-66
2023/06/21 01:49:29;;;;;;;13.23;12.02;;;;;;;17.33;100.00;101083.69;5220856;28;20461;-66
2023/06/21 01:52:04;;;;;;;;;;;;;;;17.27;100.00;101092.69;5218893;28;20442;-66
2023/06/21 01:54:40;;;;;;;14.13;12.57;;;;;;;17.28;100.00;101095.25;5220735;28;20382;-66
2023/06/21 01:57:14;;;;;;;15.05;13.55;;;;;;;17.24;100.00;101100.69;5220436;28;20018;-65
2023/06/21 01:59:46;;;;;;;16.33;14.80;;;;;;;17.22;100.00;101107.78;5221098;28;20480;-65
2023/06/21 02:02:19;;;;;;;16.17;13.03;;;;;;;17.24;100.00;101104.19;5221062;28;20065;-66
2023/06/21 02:04:52;;;;;;;16.17;14.63;;;;;;;17.21;100.00;101101.66;5220862;28;20092;-65
2023/06/21 02:07:23;;;;;;;;;;;;;;;17.17;100.00;101104.47;5221402;28;20033;-65
2023/06/21 02:09:56;;;;;;;16.80;14.60;;;;;;;17.22;100.00;101120.97;5220379;28;19918;-64
2023/06/21 02:12:34;;;;;;;15.25;13.80;;;;;;;17.23;100.00;101120.06;5220558;28;20112;-65
2023/06/21 02:15:06;;;;;;;16.95;14.27;;;;;;;17.23;100.00;101112.16;5220859;28;20030;-65
2023/06/21 02:17:38;;;;;;;16.30;14.70;;;;;;;17.18;100.00;101119.34;5219115;28;20504;-65
2023/06/21 02:20:13;;;;;;;15.13;13.63;;;;;;;17.13;100.00;101123.00;5219771;28;20069;-64
2023/06/21 02:22:45;;;;;;;14.80;13.38;;;;;;;17.14;100.00;101132.59;5220808;28;20038;-65
2023/06/21 02:25:17;;;;;;;16.02;14.23;;;;;;;17.10;100.00;101138.91;5220674;28;20045;-64
2023/06/21 02:27:48;;;;;;;15.40;13.90;;;;;;;17.08;100.00;101135.47;5219770;28;20025;-65
2023/06/21 02:30:20;;;;;;;16.53;14.53;;;;;;;17.06;100.00;101142.56;5220957;28;20272;-65
2023/06/21 02:32:51;;;;;;;18.03;14.77;;;;;;;17.06;100.00;101133.81;5220666;28;20026;-66
2023/06/21 02:35:23;;;;;;;15.43;13.93;;;;;;;17.03;100.00;101139.16;5219750;28;20037;-66
2023/06/21 02:37:55;;;;;;;16.50;14.80;;;;;;;17.03;100.00;101157.59;5220778;28;20030;-65
2023/06/21 02:40:27;;;;;;;16.67;15.07;;;;;;;17.02;100.00;101151.50;5220133;28;20499;-64
2023/06/21 02:42:58;;;;;;;16.47;14.83;;;;;;;16.97;100.00;101148.16;5220803;28;20034;-65
2023/06/21 02:45:29;;;;;;;16.00;14.43;;;;;;;16.95;100.00;101153.47;5220721;28;20029;-65
2023/06/21 02:48:01;;;;;;;16.03;14.50;;;;;;;16.97;100.00;101163.06;5219182;28;20040;-66
2023/06/21 02:50:32;;;;;;;15.77;14.33;;;;;;;16.97;100.00;101155.19;5220441;28;20450;-65
2023/06/21 02:53:03;;;;;;;16.73;15.07;;;;;;;16.90;100.00;101157.16;5220714;28;20068;-64
2023/06/21 02:55:35;;;;;;;16.20;14.60;;;;;;;16.90;100.00;101158.00;5220626;28;20026;-65
2023/06/21 02:58:06;;;;;;;16.97;15.27;;;;;;;16.86;100.00;101161.66;5220519;28;20484;-64
2023/06/21 03:00:40;;;;;;;16.27;14.63;;;;;;;16.89;100.00;101169.47;5220753;28;20030;-65
2023/06/21 03:03:12;;;;;;;17.48;15.75;;;;;;;16.87;100.00;101170.41;5220512;28;20422;-65
2023/06/21 03:05:43;;;;;;;16.73;14.97;;;;;;;16.90;100.00;101170.31;5220726;28;20120;-65
2023/06/21 03:08:14;;;;;;;16.20;14.63;;;;;;;16.89;100.00;101181.78;5219904;28;20105;-66
2023/06/21 03:10:46;;;;;;;16.17;14.67;;;;;;;16.84;100.00;101192.44;5219574;28;20075;-64
2023/06/21 03:13:17;;;;;;;16.53;14.97;;;;;;;16.86;100.00;101195.91;5218996;28;20061;-65
2023/06/21 03:15:48;;;;;;;17.97;16.27;;;;;;;16.80;100.00;101197.84;5220109;28;20100;-65
2023/06/21 03:18:20;;;;;;;17.57;15.87;;;;;;;16.84;100.00;101194.19;5220603;28;20045;-64
2023/06/21 03:20:51;;;;;;;17.17;15.57;;;;;;;16.82;100.00;101196.00;5220439;28;20116;-65
2023/06/21 03:23:23;;;;;;;17.50;15.80;;;;;;;16.82;100.00;101203.91;5220810;28;20041;-65
2023/06/21 03:25:54;;;;;;;17.53;15.73;;;;;;;16.82;100.00;101212.66;5220583;28;20053;-66
2023/06/21 03:28:26;;;;;;;19.97;15.33;;;;;;;16.85;100.00;101212.59;5220534;28;20045;-64
2023/06/21 03:30:57;;;;;;;18.57;16.77;;;;;;;16.84;100.00;101212.63;5222370;28;20060;-66
2023/06/21 03:33:29;;;;;;;18.40;16.00;;;;;;;16.84;100.00;101199.44;5223966;28;20037;-65
2023/06/21 03:36:00;;;;;;;17.37;15.67;;;;;;;16.89;100.00;101202.84;5224408;28;20046;-65
2023/06/21 03:38:31;;;;;;;18.10;16.30;;;;;;;16.93;100.00;101207.09;5223624;28;20033;-64
2023/06/21 03:41:03;;;;;;;17.97;16.10;;;;;;;16.95;100.00;101200.88;5224321;28;20030;-64
2023/06/21 03:43:34;;;;;;;19.00;17.10;;;;;;;16.96;100.00;101199.09;5222771;28;20041;-65
2023/06/21 03:46:05;;;;;;;17.53;15.77;;;;;;;17.01;100.00;101197.16;5222390;28;20472;-65
2023/06/21 03:48:37;;;;;;;18.97;17.00;;;;;;;17.07;100.00;101198.75;5223882;28;20129;-65
2023/06/21 03:51:08;;;;;;;17.77;15.90;;;;;;;17.12;100.00;101200.31;5222615;28;20061;-65
2023/06/21 03:53:39;;;;;;;18.47;16.67;;;;;;;17.19;100.00;101203.59;5224069;28;20080;-65
2023/06/21 03:56:11;;;;;;;21.57;17.80;;;;;;;17.22;100.00;101205.25;5223979;28;20042;-65
2023/06/21 03:58:42;;;;;;;18.70;16.80;;;;;;;17.26;100.00;101213.03;5222634;28;20114;-65
2023/06/21 04:01:15;;;;;;;18.67;16.80;;;;;;;17.30;100.00;101219.03;5222224;28;20030;-64
2023/06/21 04:03:46;;;;;;;17.40;15.80;;;;;;;17.39;100.00;101218.72;5223402;28;20030;-65
2023/06/21 04:06:18;;;;;;;18.77;17.07;;;;;;;17.42;100.00;101229.16;5223680;28;20026;-65
2023/06/21 04:08:49;;;;;;;17.83;16.17;;;;;;;17.43;100.00;101224.75;5223081;28;20034;-65
2023/06/21 04:11:20;;;;;;;17.93;16.30;;;;;;;17.42;100.00;101231.81;5223472;28;20029;-65
2023/06/21 04:13:52;;;;;;;18.03;16.20;;;;;;;17.41;100.00;101237.97;5223249;28;20078;-65
2023/06/21 04:16:23;;;;;;;19.37;17.47;;;;;;;17.39;100.00;101233.66;5223523;28;20042;-66
2023/06/21 04:18:55;;;;;;;19.23;17.53;;;;;;;17.35;100.00;101243.44;5223385;28;20033;-64
2023/06/21 04:21:26;;;;;;;19.80;17.90;;;;;;;17.34;100.00;101252.28;5223343;28;20069;-64
2023/06/21 04:23:57;;;;;;;20.37;17.13;;;;;;;17.37;100.00;101248.66;5223088;28;20283;-65
2023/06/21 04:26:29;;;;;;;20.53;18.33;;;;;;;17.37;100.00;101257.47;5221994;28;20069;-64
2023/06/21 04:29:03;;;;;;;20.00;18.07;;;;;;;17.44;100.00;101250.19;5223135;28;20041;-65
2023/06/21 04:31:37;;;;;;;20.27;18.38;;;;;;;17.45;100.00;101255.41;5222944;28;20116;-64
2023/06/21 04:34:09;;;;;;;20.52;18.63;;;;;;;17.50;100.00;101257.91;5222810;28;20489;-64
2023/06/21 04:36:40;;;;;;;19.77;18.00;;;;;;;17.48;100.00;101268.50;5222941;28;20030;-64
2023/06/21 04:39:11;;;;;;;20.83;18.63;;;;;;;17.49;100.00;101264.94;5222086;28;20030;-64
2023/06/21 04:41:46;;;;;;;21.63;19.73;;;;;;;17.52;100.00;101271.00;5222639;28;20544;-64
2023/06/21 04:44:17;;;;;;;19.13;17.27;;;;;;;17.59;100.00;101277.81;5222691;28;20493;-65
2023/06/21 04:46:49;;;;;;;21.35;19.25;;;;;;;17.62;100.00;101269.78;5222528;28;20065;-65
2023/06/21 04:49:25;;;;;;;20.50;18.67;;;;;;;17.65;100.00;101270.53;5221996;28;20551;-65
2023/06/21 04:51:58;;;;;;;20.63;18.77;;;;;;;17.76;100.00;101270.19;5222373;28;20057;-65
2023/06/21 04:54:31;;;;;;;;;;;;;;;17.92;100.00;101267.88;5223203;28;20030;-65
2023/06/21 04:57:07;;;;;;;19.60;17.70;;;;;;;18.01;100.00;101256.13;5222556;28;19925;-65
2023/06/21 04:59:39;;;;;;;20.58;18.58;;;;;;;18.11;100.00;101257.53;5222472;28;20116;-65
2023/06/21 05:02:10;;;;;;;;;;;;;;;18.30;100.00;101277.94;5222571;28;20069;-65
2023/06/21 05:04:42;;;;;;;19.90;17.83;;;;;;;18.22;100.00;101276.47;5222536;28;20012;-65
2023/06/21 05:07:13;;;;;;;22.77;19.47;;;;;;;18.21;100.00;101287.09;5222578;28;20037;-65
2023/06/21 05:09:44;;;;;;;20.40;18.60;;;;;;;18.18;100.00;101292.47;5221766;28;20126;-65
2023/06/21 05:12:16;;;;;;;22.63;20.43;;;;;;;18.17;100.00;101296.00;5222133;28;20030;-65
2023/06/21 05:14:47;;;;;;;22.77;20.47;;;;;;;18.20;100.00;101295.91;5222214;28;20062;-63
2023/06/21 05:17:18;;;;;;;22.30;20.13;;;;;;;18.31;100.00;101292.88;5221224;28;20034;-65
2023/06/21 05:19:50;;;;;;;20.87;19.10;;;;;;;18.48;100.00;101285.19;5222202;28;20096;-65
2023/06/21 05:22:21;;;;;;;21.47;19.43;;;;;;;18.64;100.00;101298.66;5222401;28;20559;-65
2023/06/21 05:24:52;;;;;;;21.53;19.30;;;;;;;18.74;100.00;101309.72;5222158;28;20121;-65
2023/06/21 05:27:24;;;;;;;20.43;18.53;;;;;;;18.67;100.00;101313.53;5222158;28;20081;-64
2023/06/21 05:29:55;;;;;;;22.17;19.73;;;;;;;18.74;100.00;101315.88;5222342;28;20026;-64
2023/06/21 05:32:26;;;;;;;21.50;19.53;;;;;;;18.68;100.00;101309.97;5222205;28;20040;-65
2023/06/21 05:34:58;;;;;;;20.47;18.37;;;;;;;18.61;100.00;101313.75;5222028;28;20034;-65
2023/06/21 05:37:29;;;;;;;21.87;19.73;;;;;;;18.56;100.00;101311.28;5222010;28;20042;-65
2023/06/21 05:40:02;;;;;;;21.23;19.23;;;;;;;18.52;100.00;101309.69;5221353;28;20026;-65
2023/06/21 05:42:34;;;;;;;21.52;19.42;;;;;;;18.49;100.00;101310.66;5221917;28;20092;-65
2023/06/21 05:45:08;;;;;;;22.50;20.20;;;;;;;18.49;100.00;101318.56;5221912;28;20381;-65
2023/06/21 05:47:39;;;;;;;23.08;20.73;;;;;;;18.48;100.00;101319.50;5221821;28;20118;-64
2023/06/21 05:50:10;;;;;;;22.80;20.53;;;;;;;18.45;100.00;101322.25;5221686;28;20463;-65
2023/06/21 05:52:42;;;;;;;21.00;19.00;;;;;;;18.48;100.00;101331.84;5219966;28;20044;-65
2023/06/21 05:55:13;;;;;;;22.63;20.50;;;;;;;18.47;100.00;101333.63;5220978;28;20064;-65
2023/06/21 05:57:45;;;;;;;22.83;20.50;;;;;;;18.48;100.00;101338.00;5221727;28;20030;-65
2023/06/21 06:00:17;;;;;;;20.90;18.77;;;;;;;18.48;100.00;101347.66;5221636;28;20022;-65
2023/06/21 06:02:49;;;;;;;21.33;19.02;;;;;;;18.51;100.00;101358.97;5221861;28;20481;-65
2023/06/21 06:05:20;;;;;;;22.17;20.07;;;;;;;18.55;100.00;101355.31;5220452;28;20077;-65
2023/06/21 06:07:52;;;;;;;21.67;19.67;;;;;;;18.72;100.00;101356.44;5221604;28;20109;-65
2023/06/21 06:10:23;;;;;;;23.43;21.33;;;;;;;18.71;100.00;101355.59;5220956;28;20030;-65
2023/06/21 06:12:54;;;;;;;22.37;20.33;;;;;;;18.73;100.00;101364.31;5220225;28;20053;-65
2023/06/21 06:15:26;;;;;;;23.67;21.23;;;;;;;18.73;100.00;101358.19;5219917;28;20042;-65
2023/06/21 06:17:57;;;;;;;23.83;20.93;;;;;;;18.75;100.00;101357.19;5221422;28;20026;-65
2023/06/21 06:20:29;;;;;;;22.87;20.67;;;;;;;18.82;100.00;101359.59;5221078;28;20042;-65
2023/06/21 06:23:01;;;;;;;22.90;20.67;;;;;;;18.81;100.00;101353.47;5221351;28;20036;-65
2023/06/21 06:25:33;;;;;;;21.92;19.75;;;;;;;18.87;100.00;101366.47;5221379;28;20080;-65
2023/06/21 06:28:04;;;;;;;23.13;19.60;;;;;;;19.02;100.00;101370.31;5221067;28;20034;-65
2023/06/21 06:30:36;;;;;;;21.02;18.80;;;;;;;19.04;100.00;101383.47;5221298;28;20505;-64
2023/06/21 06:33:07;;;;;;;19.80;17.80;;;;;;;19.08;100.00;101387.72;5221021;28;20034;-65
2023/06/21 06:35:38;;;;;;;17.40;15.60;;;;;;;19.20;100.00;101387.22;5221384;28;20485;-65
2023/06/21 06:38:10;;;;;;;16.23;14.73;;;;;;;19.25;100.00;101390.53;5221012;28;20124;-65
2023/06/21 06:40:41;;;;;;;16.83;15.27;;;;;;;19.33;100.00;101399.97;5220855;28;20109;-65
2023/06/21 06:43:13;;;;;;;13.50;12.30;;;;;;;19.42;100.00;101402.25;5220183;28;20084;-64
2023/06/21 06:45:44;;;;;;;14.90;13.50;;;;;;;19.52;100.00;101398.28;5221270;28;20122;-65
2023/06/21 06:48:15;;;;;;;17.13;11.80;;;;;;;19.56;100.00;101409.59;5221016;28;20030;-65
2023/06/21 06:50:47;;;;;;;12.83;11.23;;;;;;;19.57;99.36;101412.19;5220836;28;20037;-64
2023/06/21 06:53:18;;;;;;;14.13;12.67;;;;;;;19.95;99.65;101422.16;5220780;28;20034;-65
2023/06/21 06:55:54;;;;;;;11.50;10.40;;;;;;;19.99;94.93;101427.22;5221131;28;20507;-64
2023/06/21 06:58:27;;;;;;;12.27;10.57;;;;;;;20.19;94.26;101428.19;5220803;28;20376;-65
2023/06/21 07:00:59;;;;;;;10.43;9.30;;;;;;;20.12;91.49;101437.31;5220807;28;20377;-65
2023/06/21 07:03:30;;;;;;;11.77;10.00;;;;;;;19.94;92.30;101433.66;5220774;28;20100;-63
2023/06/21 07:06:01;;;;;;;11.37;8.90;;;;;;;19.71;91.81;101435.44;5224978;28;20108;-65
2023/06/21 07:08:33;;;;;;;11.43;9.83;;;;;;;19.56;93.50;101441.34;5224470;28;20473;-64
2023/06/21 07:11:04;;;;;;;11.37;10.20;;;;;;;19.53;94.95;101439.69;5224834;28;20030;-64
2023/06/21 07:13:35;;;;;;;11.13;9.90;;;;;;;19.62;93.62;101439.31;5224328;28;20040;-65
2023/06/21 07:16:07;;;;;;;13.77;10.93;;;;;;;19.76;92.04;101433.50;5224680;28;20069;-65
2023/06/21 07:18:38;;;;;;;11.57;10.10;;;;;;;19.91;93.20;101434.63;5225029;28;20400;-64
2023/06/21 07:21:09;;;;;;;13.23;11.83;;;;;;;20.00;93.73;101434.25;5224748;28;20440;-63
2023/06/21 07:23:41;;;;;;;13.57;12.17;;;;;;;20.11;92.37;101443.53;5224353;28;20030;-65
2023/06/21 07:26:12;;;;;;;15.20;13.70;;;;;;;20.08;92.64;101436.59;5223426;28;20033;-64
2023/06/21 07:28:43;;;;;;;15.83;14.33;;;;;;;20.17;93.14;101430.91;5207019;28;20041;-64
2023/06/21 07:31:15;;;;;;;15.77;14.07;;;;;;;20.31;92.82;101426.81;5224441;28;20046;-64
2023/06/21 07:33:49;;;;;;;16.57;14.93;;;;;;;20.38;94.19;101425.59;5224187;28;20366;-64
2023/06/21 07:36:20;;;;;;;15.63;14.00;;;;;;;20.59;94.93;101429.06;5224297;28;20034;-64
2023/06/21 07:38:51;;;;;;;14.40;12.90;;;;;;;20.83;90.14;101431.59;5223782;28;20034;-65
2023/06/21 07:41:23;;;;;;;11.77;10.63;;;;;;;20.74;85.24;101444.34;5224661;28;20029;-65
2023/06/21 07:43:54;;;;;;;12.97;11.77;;;;;;;20.51;86.24;101440.03;5224033;28;20026;-66
2023/06/21 07:46:25;;;;;;;11.77;10.70;;;;;;;20.39;86.13;101449.34;5224111;28;20041;-65
2023/06/21 07:48:57;;;;;;;12.67;11.43;;;;;;;20.73;86.94;101450.53;5222891;28;20385;-63
2023/06/21 07:51:28;;;;;;;12.83;11.07;;;;;;;21.00;88.63;101452.03;5224184;28;20075;-64
2023/06/21 07:53:59;;;;;;;12.00;10.90;;;;;;;21.01;83.08;101457.28;5223903;28;20041;-65
2023/06/21 07:56:31;;;;;;;11.70;10.60;;;;;;;20.99;82.53;101451.16;5222642;28;20030;-65
2023/06/21 07:59:02;;;;;;;11.73;10.53;;;;;;;21.19;81.89;101458.19;5224263;28;20033;-65
2023/06/21 08:01:34;;;;;;;11.10;10.00;;;;;;;21.66;83.06;101452.44;5223912;28;20044;-66
2023/06/21 08:04:06;;;;;;;11.88;10.68;;;;;;;21.61;80.29;101462.44;5223556;28;20084;-64
2023/06/21 08:06:37;;;;;;;11.63;10.53;;;;;;;21.76;81.42;101460.81;5224008;28;20116;-64
2023/06/21 08:09:09;;;;;;;12.07;10.57;;;;;;;21.52;80.76;101464.66;5223142;28;20034;-65
2023/06/21 08:11:40;;;;;;;11.03;9.93;;;;;;;21.42;81.50;101475.66;5223446;28;20176;-65
2023/06/21 08:14:11;;;;;;;11.83;10.73;;;;;;;21.36;80.35;101472.44;5223591;28;20134;-63
2023/06/21 08:16:43;;;;;;;12.17;10.83;;;;;;;21.57;81.29;101471.44;5222732;28;20034;-65
2023/06/21 08:19:14;;;;;;;10.43;9.43;;;;;;;21.59;79.08;101474.03;5223510;28;20034;-64
2023/06/21 08:21:45;;;;;;;8.47;7.67;;;;;;;21.74;76.53;101467.16;5223626;28;20112;-66
2023/06/21 08:24:17;;;;;;;13.77;8.97;;;;;;;21.77;76.14;101478.47;5223232;28;20521;-65
2023/06/21 08:26:48;;;;;;;8.10;7.27;;;;;;;21.82;73.01;101484.41;5238413;28;20041;-65
2023/06/21 08:29:19;;;;;;;10.10;8.20;;;;;;;21.79;72.95;101476.59;5223409;28;20044;-64
2023/06/21 08:31:51;;;;;;;8.23;7.37;;;;;;;21.72;72.09;101480.47;5223199;28;20072;-64
2023/06/21 08:34:22;;;;;;;8.53;7.50;;;;;;;21.91;73.14;101482.22;5223278;28;20033;-65
2023/06/21 08:36:53;;;;;;;8.47;7.10;;;;;;;21.84;71.41;101479.00;5223239;28;20030;-64
2023/06/21 08:39:25;;;;;;;11.50;7.57;;;;;;;21.91;73.14;101483.09;5222900;28;20030;-65
2023/06/21 08:41:56;;;;;;;9.53;7.00;;;;;;;22.25;75.75;101469.91;5223263;28;20042;-64
2023/06/21 08:44:27;;;;;;;12.73;7.07;;;;;;;22.41;72.98;101476.16;5223229;28;20144;-65
2023/06/21 08:47:01;;;;;;;8.60;7.80;;;;;;;22.34;70.21;101474.78;5222809;28;20038;-66
2023/06/21 08:49:40;;;;;;;8.27;7.47;;;;;;;22.68;70.79;101481.00;5222808;28;20329;-65
2023/06/21 08:52:17;;;;;;;8.52;7.43;;;;;;;22.66;69.36;101482.88;5222791;28;20030;-65
2023/06/21 08:55:03;;;;;;;10.82;7.53;;;;;;;22.64;67.57;101487.44;5223361;28;20445;-66
2023/06/21 08:57:40;;;;;;;8.00;7.20;;;;;;;22.69;66.40;101482.72;5221574;28;20026;-65
2023/06/21 09:00:14;;;;;;;8.40;7.05;;;;;;;22.79;67.70;101481.28;5222754;28;20468;-64
2023/06/21 09:03:01;;;;;;;6.50;5.68;;;;;;;22.93;64.07;101485.88;5222739;28;20084;-64
2023/06/21 09:05:42;;;;;;;8.38;5.07;;;;;;;23.01;63.53;101488.13;5222331;28;20049;-65
2023/06/21 09:08:15;;;;;;;7.53;4.57;;;;;;;22.85;61.60;101491.59;5222323;28;20060;-66
2023/06/21 09:10:51;;;;;;;5.65;4.30;;;;;;;22.93;59.93;101488.53;5222233;28;20110;-65
2023/06/21 09:13:23;;;;;;;7.25;4.93;;;;;;;23.10;60.77;101492.97;5222278;28;20088;-65
2023/06/21 09:15:55;;;;;;;10.32;6.18;;;;;;;23.12;62.20;101493.75;5222139;28;20153;-66
2023/06/21 09:18:35;;;;;;;;;;;;;;;23.33;64.15;101496.16;5222543;28;20034;-66
2023/06/21 09:21:10;;;;;;;6.78;4.72;;;;;;;23.53;59.54;101501.22;5222213;28;19921;-64
2023/06/21 09:23:42;;;;;;;5.38;4.07;;;;;;;23.70;58.31;101504.75;5222510;28;20038;-66
2023/06/21 09:26:13;;;;;;;5.18;4.30;;;;;;;23.69;57.03;101511.88;5222269;28;20040;-64
2023/06/21 09:28:45;;;;;;;6.18;3.78;;;;;;;23.73;58.53;101507.22;5222146;28;20030;-64
2023/06/21 09:31:17;;;;;;;4.72;3.45;;;;;;;23.72;57.03;101503.72;5221942;28;20044;-64
2023/06/21 09:33:49;;;;;;;5.90;4.10;;;;;;;23.83;57.56;101498.69;5222277;28;20041;-65
2023/06/21 09:36:20;;;;;;;5.80;4.03;;;;;;;23.79;56.10;101502.41;5222023;28;20273;-65
2023/06/21 09:39:05;;;;;;;6.47;4.73;;;;;;;24.09;58.25;101516.75;5222136;28;20390;-64
2023/06/21 09:41:39;;;;;;;6.13;4.78;;;;;;;23.93;56.87;101508.81;5222082;28;20428;-65
2023/06/21 09:44:10;;;;;;;4.28;3.70;;;;;;;23.59;54.80;101524.84;5221844;28;20054;-65
2023/06/21 09:46:41;;;;;;;5.88;4.20;;;;;;;23.74;55.57;101507.16;5221973;28;20089;-65
2023/06/21 09:49:13;;;;;;;6.63;3.90;;;;;;;23.89;54.67;101510.75;5221996;28;20121;-64
2023/06/21 09:51:47;;;;;;;5.63;4.80;;;;;;;23.80;54.70;101508.63;5221973;28;20034;-65
2023/06/21 09:54:18;;;;;;;6.50;5.30;;;;;;;23.79;55.27;101513.06;5222048;28;20057;-65
2023/06/21 09:56:50;;;;;;;7.27;4.43;;;;;;;24.02;55.36;101522.44;5221730;28;20073;-66
2023/06/21 09:59:22;;;;;;;6.97;4.57;;;;;;;24.07;54.35;101514.19;5222042;28;20092;-65
2023/06/21 10:01:53;;;;;;;5.13;4.43;;;;;;;24.38;54.42;101515.88;5221937;28;20083;-66
2023/06/21 10:04:25;;;;;;;7.30;4.30;;;;;;;24.31;54.31;101521.66;5220215;28;20087;-68
2023/06/21 10:07:02;;;;;;;5.47;4.35;;;;;;;24.40;54.32;101513.97;5221736;28;20057;-66
2023/06/21 10:09:37;;;;;;;4.43;3.30;;;;;;;25.10;52.90;101512.47;5221190;28;20032;-65
2023/06/21 10:12:13;;;;;;;5.82;3.08;;;;;;;26.42;48.52;101526.22;5221585;28;20480;-65
2023/06/21 10:14:44;;;;;;;4.47;3.50;;;;;;;27.36;44.42;101522.41;5221614;28;20045;-65
2023/06/21 10:17:15;;;;;;;3.75;3.28;;;;;;;28.51;42.89;101524.56;5221706;28;20053;-65
2023/06/21 10:19:48;;;;;;;7.78;4.55;;;;;;;29.51;39.96;101521.19;5221587;28;20034;-65
2023/06/21 10:22:21;;;;;;;5.47;4.30;;;;;;;28.82;40.16;101532.06;5221311;28;20235;-66
2023/06/21 10:24:55;;;;;;;6.63;4.93;;;;;;;28.96;40.66;101547.91;5221326;28;20038;-66
2023/06/21 10:27:27;;;;;;;6.15;5.30;;;;;;;28.08;41.89;101543.03;5221257;28;20366;-67
2023/06/21 10:30:00;;;;;;;;;;;;;;;27.03;43.91;101553.25;5221852;28;20034;-66
2023/06/21 10:32:34;;;;;;;4.80;4.38;;;;;;;25.47;47.88;101539.50;5221524;28;20252;-65
2023/06/21 10:35:17;;;;;;;7.45;4.47;;;;;;;26.46;45.96;101547.31;5221012;28;20495;-65
2023/06/21 10:38:08;;;;;;;6.40;3.28;;;;;;;28.30;41.41;101547.63;5220990;28;20099;-65
2023/06/21 10:40:40;;;;;;;5.53;3.33;;;;;;;29.80;37.22;101556.47;5220262;28;20048;-66
2023/06/21 10:43:13;;;;;;;6.40;4.28;;;;;;;30.29;36.29;101553.34;5236380;28;20038;-65
2023/06/21 10:45:45;;;;;;;5.47;3.88;;;;;;;31.16;35.05;101550.34;5220996;28;20042;-67
2023/06/21 10:48:17;;;;;;;6.15;5.35;;;;;;;28.86;37.35;101558.53;5221071;28;20029;-67
2023/06/21 10:50:50;;;;;;;6.30;5.05;;;;;;;27.44;41.68;101554.84;5221246;28;20030;-65
2023/06/21 10:53:26;;;;;;;4.85;4.00;;;;;;;28.32;40.75;101556.41;5220845;28;20034;-65
2023/06/21 10:56:00;;;;;;;6.93;5.35;;;;;;;27.63;41.16;101552.53;5221073;28;20034;-66
2023/06/21 10:58:31;;;;;;;5.72;4.97;;;;;;;27.69;44.76;101550.38;5221015;28;20030;-66
2023/06/21 11:01:04;;;;;;;8.13;5.10;;;;;;;28.81;40.31;101552.66;5220990;28;20030;-66
2023/06/21 11:03:35;;;;;;;6.10;5.45;;;;;;;29.82;37.63;101557.16;5236259;28;20073;-65
2023/06/21 11:06:28;;;;;;;6.95;5.45;;;;;;;30.57;37.64;101568.00;5220819;28;20417;-65
2023/06/21 11:09:11;;;;;;;5.57;5.05;;;;;;;29.91;36.67;101562.75;5219170;28;20072;-65
2023/06/21 11:11:51;;;;;;;6.07;5.25;;;;;;;31.00;35.78;101563.47;5220821;28;20389;-66
2023/06/21 11:14:32;;;;;;;5.85;3.65;;;;;;;32.13;34.23;101565.91;5220803;28;20062;-65
2023/06/21 11:17:08;;;;;;;5.65;4.38;;;;;;;32.18;34.33;101562.78;5221048;28;20117;-65
2023/06/21 11:19:42;;;;;;;6.22;4.50;;;;;;;30.84;33.63;101563.91;5220572;28;20492;-67
2023/06/21 11:22:21;;;;;;;5.88;4.05;;;;;;;29.67;36.09;101562.91;5220902;28;20385;-65
2023/06/21 11:24:58;;;;;;;6.25;4.13;;;;;;;28.17;38.81;101572.69;5220517;28;20068;-66
2023/06/21 11:27:30;;;;;;;4.32;3.80;;;;;;;29.37;36.83;101570.66;5220664;28;20473;-65
2023/06/21 11:30:09;;;;;;;4.40;4.00;;;;;;;28.40;38.50;101562.06;5220513;28;20042;-66
2023/06/21 11:32:55;;;;;;;5.75;4.28;;;;;;;30.09;37.67;101561.25;5234794;28;20046;-66
2023/06/21 11:35:49;;;;;;;4.78;3.67;;;;;;;30.88;36.03;101558.13;5220948;28;20083;-65
2023/06/21 11:38:20;;;;;;;5.32;4.07;;;;;;;28.61;37.28;101564.09;5235384;28;20040;-66